createdAt,value
2017-04-27T00:00:12.246Z,1008.53
2017-04-27T00:00:38.335Z,1008.53
2017-04-27T00:01:04.540Z,1008.54
2017-04-27T00:01:30.659Z,1008.53
2017-04-27T00:01:56.771Z,1008.53
2017-04-27T00:02:22.877Z,1008.53
2017-04-27T00:02:48.971Z,1008.53
2017-04-27T00:03:15.061Z,1008.5
2017-04-27T00:03:41.167Z,1008.51
2017-04-27T00:04:07.263Z,1008.48
2017-04-27T00:04:33.350Z,1008.52
2017-04-27T00:04:59.449Z,1008.52
2017-04-27T00:05:25.552Z,1008.48
2017-04-27T00:05:51.646Z,1008.51
2017-04-27T00:06:17.740Z,1008.47
2017-04-27T00:06:43.830Z,1008.46
2017-04-27T00:07:09.934Z,1008.47
2017-04-27T00:07:36.031Z,1008.51
2017-04-27T00:08:02.144Z,1008.5
2017-04-27T00:08:28.245Z,1008.5
2017-04-27T00:08:54.347Z,1008.52
2017-04-27T00:09:20.456Z,1008.52
2017-04-27T00:09:46.558Z,1008.51
2017-04-27T00:10:12.684Z,1008.51
2017-04-27T00:10:38.798Z,1008.5
2017-04-27T00:11:04.917Z,1008.46
2017-04-27T00:11:31.063Z,1008.46
2017-04-27T00:11:57.165Z,1008.51
2017-04-27T00:12:23.268Z,1008.51
2017-04-27T00:12:49.352Z,1008.5
2017-04-27T00:13:15.475Z,1008.54
2017-04-27T00:13:41.580Z,1008.5
2017-04-27T00:14:07.667Z,1008.51
2017-04-27T00:14:33.762Z,1008.46
2017-04-27T00:14:59.892Z,1008.5
2017-04-27T00:15:25.982Z,1008.51
2017-04-27T00:15:52.069Z,1008.52
2017-04-27T00:16:18.175Z,1008.52
2017-04-27T00:16:44.269Z,1008.5
2017-04-27T00:17:10.355Z,1008.51
2017-04-27T00:17:36.461Z,1008.48
2017-04-27T00:18:02.558Z,1008.53
2017-04-27T00:18:28.647Z,1008.51
2017-04-27T00:18:54.748Z,1008.49
2017-04-27T00:19:20.878Z,1008.46
2017-04-27T00:19:47.011Z,1008.47
2017-04-27T00:20:13.110Z,1008.5
2017-04-27T00:20:39.364Z,1008.46
2017-04-27T00:21:05.455Z,1008.48
2017-04-27T00:21:31.545Z,1008.5
2017-04-27T00:21:57.648Z,1008.5
2017-04-27T00:22:23.739Z,1008.48
2017-04-27T00:22:49.867Z,1008.47
2017-04-27T00:23:15.974Z,1008.48
2017-04-27T00:23:42.070Z,1008.49
2017-04-27T00:24:08.202Z,1008.46
2017-04-27T00:24:34.314Z,1008.48
2017-04-27T00:25:00.407Z,1008.48
2017-04-27T00:25:26.514Z,1008.49
2017-04-27T00:25:52.604Z,1008.46
2017-04-27T00:26:18.693Z,1008.49
2017-04-27T00:26:44.800Z,1008.44
2017-04-27T00:27:10.896Z,1008.51
2017-04-27T00:27:37.030Z,1008.48
2017-04-27T00:28:03.132Z,1008.48
2017-04-27T00:28:29.222Z,1008.47
2017-04-27T00:28:55.325Z,1008.46
2017-04-27T00:29:21.415Z,1008.5
2017-04-27T00:29:47.501Z,1008.47
2017-04-27T00:30:13.607Z,1008.48
2017-04-27T00:30:39.738Z,1008.49
2017-04-27T00:31:05.865Z,1008.44
2017-04-27T00:31:31.970Z,1008.46
2017-04-27T00:31:58.067Z,1008.43
2017-04-27T00:32:24.155Z,1008.41
2017-04-27T00:32:50.283Z,1008.45
2017-04-27T00:33:16.415Z,1008.48
2017-04-27T00:33:42.505Z,1008.46
2017-04-27T00:34:08.627Z,1008.47
2017-04-27T00:34:34.764Z,1008.48
2017-04-27T00:35:00.922Z,1008.41
2017-04-27T00:35:27.018Z,1008.44
2017-04-27T00:35:53.107Z,1008.45
2017-04-27T00:36:19.208Z,1008.46
2017-04-27T00:36:45.338Z,1008.47
2017-04-27T00:37:11.445Z,1008.43
2017-04-27T00:37:37.541Z,1008.45
2017-04-27T00:38:03.745Z,1008.47
2017-04-27T00:38:29.856Z,1008.45
2017-04-27T00:38:55.975Z,1008.45
2017-04-27T00:39:22.104Z,1008.47
2017-04-27T00:39:48.196Z,1008.45
2017-04-27T00:40:14.305Z,1008.42
2017-04-27T00:40:40.414Z,1008.44
2017-04-27T00:41:06.534Z,1008.43
2017-04-27T00:41:32.621Z,1008.44
2017-04-27T00:41:58.724Z,1008.42
2017-04-27T00:42:24.821Z,1008.45
2017-04-27T00:42:50.909Z,1008.44
2017-04-27T00:43:17.062Z,1008.43
2017-04-27T00:43:43.166Z,1008.41
2017-04-27T00:44:09.249Z,1008.45
2017-04-27T00:44:35.347Z,1008.43
2017-04-27T00:45:01.462Z,1008.43
2017-04-27T00:45:27.591Z,1008.42
2017-04-27T00:45:53.716Z,1008.43
2017-04-27T00:46:19.805Z,1008.42
2017-04-27T00:46:45.931Z,1008.39
2017-04-27T00:47:12.118Z,1008.42
2017-04-27T00:47:38.228Z,1008.4
2017-04-27T00:48:04.323Z,1008.42
2017-04-27T00:48:30.527Z,1008.44
2017-04-27T00:48:56.640Z,1008.41
2017-04-27T00:49:22.734Z,1008.43
2017-04-27T00:49:48.868Z,1008.4
2017-04-27T00:50:14.960Z,1008.42
2017-04-27T00:50:41.060Z,1008.39
2017-04-27T00:51:07.144Z,1008.4
2017-04-27T00:51:33.242Z,1008.41
2017-04-27T00:51:59.345Z,1008.38
2017-04-27T00:52:25.432Z,1008.45
2017-04-27T00:52:51.554Z,1008.4
2017-04-27T00:53:17.711Z,1008.41
2017-04-27T00:53:43.832Z,1008.37
2017-04-27T00:54:09.918Z,1008.36
2017-04-27T00:54:36.025Z,1008.38
2017-04-27T00:55:02.118Z,1008.39
2017-04-27T00:55:28.206Z,1008.37
2017-04-27T00:55:54.334Z,1008.4
2017-04-27T00:56:20.430Z,1008.35
2017-04-27T00:56:46.583Z,1008.38
2017-04-27T00:57:12.701Z,1008.39
2017-04-27T00:57:38.790Z,1008.41
2017-04-27T00:58:04.983Z,1008.41
2017-04-27T00:58:31.130Z,1008.4
2017-04-27T00:58:57.246Z,1008.38
2017-04-27T00:59:23.426Z,1008.38
2017-04-27T00:59:49.551Z,1008.41
2017-04-27T01:00:15.687Z,1008.42
2017-04-27T01:00:41.787Z,1008.39
2017-04-27T01:01:07.893Z,1008.39
2017-04-27T01:01:34.076Z,1008.38
2017-04-27T01:02:00.199Z,1008.43
2017-04-27T01:02:26.387Z,1008.42
2017-04-27T01:02:52.546Z,1008.41
2017-04-27T01:03:18.693Z,1008.39
2017-04-27T01:03:44.822Z,1008.44
2017-04-27T01:04:10.940Z,1008.43
2017-04-27T01:04:37.052Z,1008.43
2017-04-27T01:05:03.364Z,1008.43
2017-04-27T01:05:29.483Z,1008.41
2017-04-27T01:05:55.573Z,1008.43
2017-04-27T01:06:21.777Z,1008.41
2017-04-27T01:06:47.958Z,1008.4
2017-04-27T01:07:14.082Z,1008.44
2017-04-27T01:07:40.172Z,1008.46
2017-04-27T01:08:06.309Z,1008.41
2017-04-27T01:08:32.444Z,1008.45
2017-04-27T01:08:58.649Z,1008.44
2017-04-27T01:09:24.785Z,1008.46
2017-04-27T01:09:50.914Z,1008.42
2017-04-27T01:10:17.038Z,1008.49
2017-04-27T01:10:43.126Z,1008.45
2017-04-27T01:11:09.255Z,1008.4
2017-04-27T01:11:35.360Z,1008.5
2017-04-27T01:12:01.466Z,1008.48
2017-04-27T01:12:27.586Z,1008.45
2017-04-27T01:12:53.732Z,1008.43
2017-04-27T01:13:19.889Z,1008.44
2017-04-27T01:13:46.086Z,1008.41
2017-04-27T01:14:12.173Z,1008.45
2017-04-27T01:14:38.323Z,1008.45
2017-04-27T01:15:04.454Z,1008.46
2017-04-27T01:15:30.539Z,1008.39
2017-04-27T01:15:56.662Z,1008.43
2017-04-27T01:16:22.823Z,1008.44
2017-04-27T01:16:48.934Z,1008.41
2017-04-27T01:17:15.028Z,1008.39
2017-04-27T01:17:41.159Z,1008.41
2017-04-27T01:18:07.250Z,1008.41
2017-04-27T01:18:33.354Z,1008.42
2017-04-27T01:18:59.466Z,1008.42
2017-04-27T01:19:25.610Z,1008.4
2017-04-27T01:19:51.712Z,1008.41
2017-04-27T01:20:17.851Z,1008.39
2017-04-27T01:20:43.947Z,1008.39
2017-04-27T01:21:10.129Z,1008.44
2017-04-27T01:21:36.220Z,1008.43
2017-04-27T01:22:02.380Z,1008.41
2017-04-27T01:22:28.489Z,1008.42
2017-04-27T01:22:54.583Z,1008.39
2017-04-27T01:23:20.673Z,1008.37
2017-04-27T01:23:46.829Z,1008.44
2017-04-27T01:24:12.939Z,1008.44
2017-04-27T01:24:39.043Z,1008.39
2017-04-27T01:25:05.185Z,1008.38
2017-04-27T01:25:31.299Z,1008.41
2017-04-27T01:25:57.433Z,1008.39
2017-04-27T01:26:23.578Z,1008.37
2017-04-27T01:26:49.741Z,1008.38
2017-04-27T01:27:15.870Z,1008.37
2017-04-27T01:27:42.049Z,1008.36
2017-04-27T01:28:08.186Z,1008.36
2017-04-27T01:28:34.316Z,1008.4
2017-04-27T01:29:00.474Z,1008.41
2017-04-27T01:29:26.614Z,1008.41
2017-04-27T01:29:52.789Z,1008.4
2017-04-27T01:30:18.901Z,1008.4
2017-04-27T01:30:45.004Z,1008.37
2017-04-27T01:31:11.102Z,1008.43
2017-04-27T01:31:37.239Z,1008.42
2017-04-27T01:32:03.341Z,1008.43
2017-04-27T01:32:29.471Z,1008.43
2017-04-27T01:32:55.607Z,1008.4
2017-04-27T01:33:21.728Z,1008.42
2017-04-27T01:33:47.915Z,1008.43
2017-04-27T01:34:14.025Z,1008.44
2017-04-27T01:34:40.146Z,1008.47
2017-04-27T01:35:06.297Z,1008.44
2017-04-27T01:35:32.396Z,1008.45
2017-04-27T01:35:58.500Z,1008.43
2017-04-27T01:36:24.610Z,1008.46
2017-04-27T01:36:50.707Z,1008.45
2017-04-27T01:37:16.811Z,1008.46
2017-04-27T01:37:42.900Z,1008.47
2017-04-27T01:38:09.043Z,1008.45
2017-04-27T01:38:35.149Z,1008.45
2017-04-27T01:39:01.290Z,1008.42
2017-04-27T01:39:27.404Z,1008.47
2017-04-27T01:39:53.593Z,1008.44
2017-04-27T01:40:19.715Z,1008.46
2017-04-27T01:40:45.817Z,1008.49
2017-04-27T01:41:11.931Z,1008.47
2017-04-27T01:41:38.027Z,1008.49
2017-04-27T01:42:04.129Z,1008.45
2017-04-27T01:42:30.248Z,1008.48
2017-04-27T01:42:56.410Z,1008.45
2017-04-27T01:43:22.545Z,1008.47
2017-04-27T01:43:48.697Z,1008.43
2017-04-27T01:44:14.831Z,1008.43
2017-04-27T01:44:40.959Z,1008.47
2017-04-27T01:45:07.085Z,1008.46
2017-04-27T01:45:33.171Z,1008.46
2017-04-27T01:45:59.269Z,1008.46
2017-04-27T01:46:25.374Z,1008.48
2017-04-27T01:46:51.459Z,1008.47
2017-04-27T01:47:17.554Z,1008.48
2017-04-27T01:47:43.681Z,1008.46
2017-04-27T01:48:09.795Z,1008.48
2017-04-27T01:48:35.915Z,1008.46
2017-04-27T01:49:02.076Z,1008.51
2017-04-27T01:49:28.168Z,1008.46
2017-04-27T01:49:54.280Z,1008.45
2017-04-27T01:50:20.410Z,1008.47
2017-04-27T01:50:46.530Z,1008.46
2017-04-27T01:51:12.641Z,1008.47
2017-04-27T01:51:38.745Z,1008.51
2017-04-27T01:52:04.837Z,1008.49
2017-04-27T01:52:30.966Z,1008.48
2017-04-27T01:52:57.058Z,1008.54
2017-04-27T01:53:23.167Z,1008.52
2017-04-27T01:53:49.278Z,1008.49
2017-04-27T01:54:15.425Z,1008.51
2017-04-27T01:54:41.538Z,1008.48
2017-04-27T01:55:07.769Z,1008.5
2017-04-27T01:55:33.867Z,1008.52
2017-04-27T01:56:00.078Z,1008.52
2017-04-27T01:56:26.199Z,1008.51
2017-04-27T01:56:52.360Z,1008.5
2017-04-27T01:57:18.451Z,1008.47
2017-04-27T01:57:44.569Z,1008.48
2017-04-27T01:58:10.684Z,1008.48
2017-04-27T01:58:36.865Z,1008.45
2017-04-27T01:59:02.961Z,1008.46
2017-04-27T01:59:29.047Z,1008.47
2017-04-27T01:59:55.146Z,1008.48
2017-04-27T02:00:21.277Z,1008.5
2017-04-27T02:00:47.385Z,1008.44
2017-04-27T02:01:13.482Z,1008.49
2017-04-27T02:01:39.612Z,1008.47
2017-04-27T02:02:05.752Z,1008.48
2017-04-27T02:02:31.870Z,1008.5
2017-04-27T02:02:58.074Z,1008.49
2017-04-27T02:03:24.202Z,1008.48
2017-04-27T02:03:50.362Z,1008.48
2017-04-27T02:04:16.473Z,1008.47
2017-04-27T02:04:42.667Z,1008.48
2017-04-27T02:05:08.831Z,1008.47
2017-04-27T02:05:34.888Z,1008.48
2017-04-27T02:06:01.031Z,1008.47
2017-04-27T02:06:27.162Z,1008.48
2017-04-27T02:06:53.253Z,1008.49
2017-04-27T02:07:19.344Z,1008.49
2017-04-27T02:07:45.503Z,1008.47
2017-04-27T02:08:11.600Z,1008.5
2017-04-27T02:08:37.804Z,1008.51
2017-04-27T02:09:03.945Z,1008.47
2017-04-27T02:09:30.087Z,1008.52
2017-04-27T02:09:56.219Z,1008.49
2017-04-27T02:10:22.312Z,1008.49
2017-04-27T02:10:48.450Z,1008.49
2017-04-27T02:11:14.608Z,1008.5
2017-04-27T02:11:40.753Z,1008.5
2017-04-27T02:12:06.864Z,1008.5
2017-04-27T02:12:32.970Z,1008.53
2017-04-27T02:12:59.120Z,1008.47
2017-04-27T02:13:25.285Z,1008.46
2017-04-27T02:13:51.465Z,1008.5
2017-04-27T02:14:17.578Z,1008.49
2017-04-27T02:14:43.684Z,1008.46
2017-04-27T02:15:09.834Z,1008.48
2017-04-27T02:15:35.971Z,1008.48
2017-04-27T02:16:02.075Z,1008.49
2017-04-27T02:16:28.171Z,1008.51
2017-04-27T02:16:54.257Z,1008.48
2017-04-27T02:17:20.358Z,1008.54
2017-04-27T02:17:46.491Z,1008.5
2017-04-27T02:18:12.621Z,1008.46
2017-04-27T02:18:38.794Z,1008.51
2017-04-27T02:19:04.924Z,1008.51
2017-04-27T02:19:31.037Z,1008.5
2017-04-27T02:19:57.166Z,1008.52
2017-04-27T02:20:23.253Z,1008.5
2017-04-27T02:20:49.353Z,1008.5
2017-04-27T02:21:15.455Z,1008.51
2017-04-27T02:21:41.540Z,1008.54
2017-04-27T02:22:07.660Z,1008.51
2017-04-27T02:22:33.764Z,1008.51
2017-04-27T02:22:59.851Z,1008.53
2017-04-27T02:23:25.972Z,1008.51
2017-04-27T02:23:52.128Z,1008.48
2017-04-27T02:24:18.220Z,1008.51
2017-04-27T02:24:44.355Z,1008.48
2017-04-27T02:25:10.513Z,1008.52
2017-04-27T02:25:36.612Z,1008.49
2017-04-27T02:26:02.714Z,1008.5
2017-04-27T02:26:28.800Z,1008.47
2017-04-27T02:26:54.918Z,1008.47
2017-04-27T02:27:21.021Z,1008.49
2017-04-27T02:27:47.158Z,1008.5
2017-04-27T02:28:13.248Z,1008.47
2017-04-27T02:28:39.405Z,1008.47
2017-04-27T02:29:05.555Z,1008.51
2017-04-27T02:29:31.690Z,1008.52
2017-04-27T02:29:57.848Z,1008.48
2017-04-27T02:30:24.001Z,1008.52
2017-04-27T02:30:50.087Z,1008.54
2017-04-27T02:31:16.187Z,1008.54
2017-04-27T02:31:42.290Z,1008.54
2017-04-27T02:32:08.398Z,1008.47
2017-04-27T02:32:34.496Z,1008.57
2017-04-27T02:33:00.599Z,1008.55
2017-04-27T02:33:26.711Z,1008.53
2017-04-27T02:33:52.830Z,1008.54
2017-04-27T02:34:18.962Z,1008.53
2017-04-27T02:34:45.078Z,1008.55
2017-04-27T02:35:11.191Z,1008.57
2017-04-27T02:35:37.296Z,1008.55
2017-04-27T02:36:03.392Z,1008.57
2017-04-27T02:36:29.515Z,1008.54
2017-04-27T02:36:55.600Z,1008.54
2017-04-27T02:37:21.717Z,1008.56
2017-04-27T02:37:47.826Z,1008.54
2017-04-27T02:38:13.916Z,1008.5
2017-04-27T02:38:40.055Z,1008.54
2017-04-27T02:39:06.216Z,1008.53
2017-04-27T02:39:32.360Z,1008.52
2017-04-27T02:39:58.523Z,1008.51
2017-04-27T02:40:24.624Z,1008.49
2017-04-27T02:40:50.778Z,1008.49
2017-04-27T02:41:16.865Z,1008.51
2017-04-27T02:41:42.963Z,1008.51
2017-04-27T02:42:09.075Z,1008.5
2017-04-27T02:42:35.238Z,1008.53
2017-04-27T02:43:01.331Z,1008.51
2017-04-27T02:43:27.444Z,1008.53
2017-04-27T02:43:53.625Z,1008.52
2017-04-27T02:44:19.778Z,1008.48
2017-04-27T02:44:45.891Z,1008.55
2017-04-27T02:45:11.989Z,1008.55
2017-04-27T02:45:38.120Z,1008.51
2017-04-27T02:46:04.206Z,1008.53
2017-04-27T02:46:30.303Z,1008.56
2017-04-27T02:46:56.404Z,1008.52
2017-04-27T02:47:22.518Z,1008.53
2017-04-27T02:47:48.618Z,1008.54
2017-04-27T02:48:14.761Z,1008.5
2017-04-27T02:48:40.883Z,1008.52
2017-04-27T02:49:07.042Z,1008.5
2017-04-27T02:49:33.150Z,1008.54
2017-04-27T02:49:59.273Z,1008.52
2017-04-27T02:50:25.377Z,1008.55
2017-04-27T02:50:51.464Z,1008.56
2017-04-27T02:51:17.607Z,1008.58
2017-04-27T02:51:43.738Z,1008.57
2017-04-27T02:52:09.830Z,1008.57
2017-04-27T02:52:35.944Z,1008.55
2017-04-27T02:53:02.101Z,1008.54
2017-04-27T02:53:28.225Z,1008.51
2017-04-27T02:53:54.383Z,1008.55
2017-04-27T02:54:20.523Z,1008.56
2017-04-27T02:54:46.641Z,1008.57
2017-04-27T02:55:12.801Z,1008.59
2017-04-27T02:55:38.891Z,1008.54
2017-04-27T02:56:05.026Z,1008.58
2017-04-27T02:56:31.135Z,1008.56
2017-04-27T02:56:57.258Z,1008.58
2017-04-27T02:57:23.367Z,1008.57
2017-04-27T02:57:49.527Z,1008.55
2017-04-27T02:58:15.652Z,1008.58
2017-04-27T02:58:41.801Z,1008.59
2017-04-27T02:59:07.948Z,1008.57
2017-04-27T02:59:34.084Z,1008.55
2017-04-27T03:00:00.244Z,1008.6
2017-04-27T03:00:26.337Z,1008.62
2017-04-27T03:00:52.427Z,1008.63
2017-04-27T03:01:18.530Z,1008.6
2017-04-27T03:01:44.653Z,1008.6
2017-04-27T03:02:10.766Z,1008.61
2017-04-27T03:02:36.897Z,1008.6
2017-04-27T03:03:03.113Z,1008.61
2017-04-27T03:03:29.224Z,1008.6
2017-04-27T03:03:55.394Z,1008.56
2017-04-27T03:04:21.482Z,1008.65
2017-04-27T03:04:47.613Z,1008.64
2017-04-27T03:05:13.730Z,1008.62
2017-04-27T03:05:39.798Z,1008.59
2017-04-27T03:06:05.896Z,1008.62
2017-04-27T03:06:32.002Z,1008.57
2017-04-27T03:06:58.086Z,1008.63
2017-04-27T03:07:24.230Z,1008.65
2017-04-27T03:07:50.362Z,1008.58
2017-04-27T03:08:16.449Z,1008.63
2017-04-27T03:08:42.593Z,1008.58
2017-04-27T03:09:08.722Z,1008.6
2017-04-27T03:09:34.839Z,1008.57
2017-04-27T03:10:00.944Z,1008.56
2017-04-27T03:10:27.054Z,1008.61
2017-04-27T03:10:53.176Z,1008.63
2017-04-27T03:11:19.309Z,1008.61
2017-04-27T03:11:45.397Z,1008.58
2017-04-27T03:12:11.514Z,1008.61
2017-04-27T03:12:37.645Z,1008.58
2017-04-27T03:13:03.841Z,1008.56
2017-04-27T03:13:29.929Z,1008.56
2017-04-27T03:13:56.065Z,1008.57
2017-04-27T03:14:22.211Z,1008.58
2017-04-27T03:14:48.347Z,1008.58
2017-04-27T03:15:14.475Z,1008.6
2017-04-27T03:15:40.598Z,1008.58
2017-04-27T03:16:06.709Z,1008.58
2017-04-27T03:16:32.861Z,1008.58
2017-04-27T03:16:58.964Z,1008.61
2017-04-27T03:17:25.049Z,1008.59
2017-04-27T03:17:51.198Z,1008.58
2017-04-27T03:18:17.355Z,1008.58
2017-04-27T03:18:43.490Z,1008.57
2017-04-27T03:19:09.659Z,1008.61
2017-04-27T03:19:35.789Z,1008.62
2017-04-27T03:20:01.879Z,1008.63
2017-04-27T03:20:27.967Z,1008.64
2017-04-27T03:20:54.066Z,1008.61
2017-04-27T03:21:20.164Z,1008.6
2017-04-27T03:21:46.267Z,1008.61
2017-04-27T03:22:12.403Z,1008.63
2017-04-27T03:22:38.495Z,1008.64
2017-04-27T03:23:04.626Z,1008.62
2017-04-27T03:23:30.716Z,1008.65
2017-04-27T03:23:56.879Z,1008.61
2017-04-27T03:24:22.984Z,1008.65
2017-04-27T03:24:49.104Z,1008.64
2017-04-27T03:25:15.190Z,1008.64
2017-04-27T03:25:41.321Z,1008.65
2017-04-27T03:26:07.415Z,1008.63
2017-04-27T03:26:33.512Z,1008.64
2017-04-27T03:26:59.628Z,1008.64
2017-04-27T03:27:25.741Z,1008.68
2017-04-27T03:27:51.935Z,1008.66
2017-04-27T03:28:18.080Z,1008.64
2017-04-27T03:28:44.192Z,1008.65
2017-04-27T03:29:10.317Z,1008.66
2017-04-27T03:29:36.442Z,1008.65
2017-04-27T03:30:02.578Z,1008.66
2017-04-27T03:30:28.679Z,1008.64
2017-04-27T03:30:54.838Z,1008.67
2017-04-27T03:31:20.923Z,1008.67
2017-04-27T03:31:47.046Z,1008.64
2017-04-27T03:32:13.163Z,1008.64
2017-04-27T03:32:39.300Z,1008.64
2017-04-27T03:33:05.448Z,1008.69
2017-04-27T03:33:31.586Z,1008.65
2017-04-27T03:33:57.766Z,1008.64
2017-04-27T03:34:23.897Z,1008.67
2017-04-27T03:34:49.981Z,1008.66
2017-04-27T03:35:16.128Z,1008.65
2017-04-27T03:35:42.234Z,1008.67
2017-04-27T03:36:08.320Z,1008.68
2017-04-27T03:36:34.413Z,1008.64
2017-04-27T03:37:00.516Z,1008.69
2017-04-27T03:37:26.633Z,1008.68
2017-04-27T03:37:52.816Z,1008.68
2017-04-27T03:38:18.926Z,1008.64
2017-04-27T03:38:45.098Z,1008.65
2017-04-27T03:39:11.202Z,1008.66
2017-04-27T03:39:37.316Z,1008.65
2017-04-27T03:40:03.460Z,1008.69
2017-04-27T03:40:29.563Z,1008.68
2017-04-27T03:40:55.705Z,1008.68
2017-04-27T03:41:21.840Z,1008.69
2017-04-27T03:41:47.946Z,1008.68
2017-04-27T03:42:14.043Z,1008.68
2017-04-27T03:42:40.150Z,1008.68
2017-04-27T03:43:06.278Z,1008.67
2017-04-27T03:43:32.417Z,1008.71
2017-04-27T03:43:58.604Z,1008.71
2017-04-27T03:44:24.716Z,1008.65
2017-04-27T03:44:50.828Z,1008.64
2017-04-27T03:45:16.964Z,1008.67
2017-04-27T03:45:43.085Z,1008.68
2017-04-27T03:46:09.172Z,1008.68
2017-04-27T03:46:35.275Z,1008.66
2017-04-27T03:47:01.400Z,1008.68
2017-04-27T03:47:27.537Z,1008.68
2017-04-27T03:47:53.663Z,1008.68
2017-04-27T03:48:19.820Z,1008.67
2017-04-27T03:48:45.990Z,1008.69
2017-04-27T03:49:12.105Z,1008.71
2017-04-27T03:49:38.266Z,1008.68
2017-04-27T03:50:04.394Z,1008.68
2017-04-27T03:50:30.492Z,1008.73
2017-04-27T03:50:56.630Z,1008.72
2017-04-27T03:51:22.727Z,1008.68
2017-04-27T03:51:48.832Z,1008.71
2017-04-27T03:52:14.915Z,1008.72
2017-04-27T03:52:41.036Z,1008.72
2017-04-27T03:53:07.220Z,1008.74
2017-04-27T03:53:33.335Z,1008.76
2017-04-27T03:53:59.477Z,1008.76
2017-04-27T03:54:25.571Z,1008.76
2017-04-27T03:54:51.669Z,1008.76
2017-04-27T03:55:17.826Z,1008.77
2017-04-27T03:55:43.934Z,1008.81
2017-04-27T03:56:10.040Z,1008.76
2017-04-27T03:56:36.160Z,1008.76
2017-04-27T03:57:02.248Z,1008.76
2017-04-27T03:57:28.340Z,1008.75
2017-04-27T03:57:54.526Z,1008.78
2017-04-27T03:58:20.667Z,1008.78
2017-04-27T03:58:46.780Z,1008.83
2017-04-27T03:59:12.941Z,1008.82
2017-04-27T03:59:39.062Z,1008.8
2017-04-27T04:00:05.172Z,1008.79
2017-04-27T04:00:31.272Z,1008.83
2017-04-27T04:00:57.369Z,1008.81
2017-04-27T04:01:23.457Z,1008.84
2017-04-27T04:01:49.583Z,1008.84
2017-04-27T04:02:15.682Z,1008.83
2017-04-27T04:02:41.790Z,1008.82
2017-04-27T04:03:07.933Z,1008.85
2017-04-27T04:03:34.091Z,1008.86
2017-04-27T04:04:00.180Z,1008.83
2017-04-27T04:04:26.269Z,1008.82
2017-04-27T04:04:52.374Z,1008.85
2017-04-27T04:05:18.491Z,1008.85
2017-04-27T04:05:44.592Z,1008.87
2017-04-27T04:06:10.677Z,1008.81
2017-04-27T04:06:36.801Z,1008.85
2017-04-27T04:07:02.933Z,1008.84
2017-04-27T04:07:29.048Z,1008.85
2017-04-27T04:07:55.145Z,1008.87
2017-04-27T04:08:21.245Z,1008.88
2017-04-27T04:08:47.429Z,1008.86
2017-04-27T04:09:13.552Z,1008.88
2017-04-27T04:09:39.686Z,1008.93
2017-04-27T04:10:05.781Z,1008.89
2017-04-27T04:10:31.868Z,1008.91
2017-04-27T04:10:58.026Z,1008.86
2017-04-27T04:11:24.114Z,1008.9
2017-04-27T04:11:50.273Z,1008.92
2017-04-27T04:12:16.364Z,1008.88
2017-04-27T04:12:42.450Z,1008.9
2017-04-27T04:13:08.584Z,1008.88
2017-04-27T04:13:34.703Z,1008.92
2017-04-27T04:14:00.792Z,1008.9
2017-04-27T04:14:26.922Z,1008.93
2017-04-27T04:14:53.073Z,1008.91
2017-04-27T04:15:19.209Z,1008.93
2017-04-27T04:15:45.308Z,1008.93
2017-04-27T04:16:11.466Z,1008.92
2017-04-27T04:16:37.605Z,1008.95
2017-04-27T04:17:03.724Z,1008.93
2017-04-27T04:17:29.861Z,1008.93
2017-04-27T04:17:55.966Z,1008.93
2017-04-27T04:18:22.063Z,1008.92
2017-04-27T04:18:48.245Z,1008.94
2017-04-27T04:19:14.374Z,1008.98
2017-04-27T04:19:40.533Z,1008.95
2017-04-27T04:20:06.664Z,1008.92
2017-04-27T04:20:32.762Z,1008.96
2017-04-27T04:20:58.892Z,1009.01
2017-04-27T04:21:25.006Z,1008.95
2017-04-27T04:21:51.102Z,1009
2017-04-27T04:22:17.196Z,1008.99
2017-04-27T04:22:43.323Z,1009
2017-04-27T04:23:09.454Z,1008.98
2017-04-27T04:23:35.586Z,1008.97
2017-04-27T04:24:01.731Z,1009
2017-04-27T04:24:27.889Z,1009
2017-04-27T04:24:54.004Z,1008.97
2017-04-27T04:25:20.145Z,1009.02
2017-04-27T04:25:46.275Z,1009.04
2017-04-27T04:26:12.366Z,1009.04
2017-04-27T04:26:38.476Z,1008.99
2017-04-27T04:27:04.583Z,1009.05
2017-04-27T04:27:30.733Z,1009.06
2017-04-27T04:27:56.884Z,1009.05
2017-04-27T04:28:23.000Z,1009.1
2017-04-27T04:28:49.145Z,1009.06
2017-04-27T04:29:15.301Z,1009.09
2017-04-27T04:29:41.444Z,1009.08
2017-04-27T04:30:07.582Z,1009.09
2017-04-27T04:30:33.687Z,1009.1
2017-04-27T04:30:59.781Z,1009.08
2017-04-27T04:31:25.867Z,1009.11
2017-04-27T04:31:51.969Z,1009.13
2017-04-27T04:32:18.064Z,1009.1
2017-04-27T04:32:44.153Z,1009.08
2017-04-27T04:33:10.303Z,1009.11
2017-04-27T04:33:36.415Z,1009.16
2017-04-27T04:34:02.577Z,1009.12
2017-04-27T04:34:28.671Z,1009.12
2017-04-27T04:34:54.783Z,1009.1
2017-04-27T04:35:20.909Z,1009.12
2017-04-27T04:35:47.059Z,1009.07
2017-04-27T04:36:13.172Z,1009.14
2017-04-27T04:36:39.272Z,1009.11
2017-04-27T04:37:05.404Z,1009.13
2017-04-27T04:37:31.512Z,1009.12
2017-04-27T04:37:57.660Z,1009.13
2017-04-27T04:38:23.819Z,1009.13
2017-04-27T04:38:49.932Z,1009.18
2017-04-27T04:39:16.086Z,1009.15
2017-04-27T04:39:42.197Z,1009.17
2017-04-27T04:40:08.320Z,1009.2
2017-04-27T04:40:34.448Z,1009.2
2017-04-27T04:41:00.531Z,1009.2
2017-04-27T04:41:26.654Z,1009.23
2017-04-27T04:41:52.758Z,1009.21
2017-04-27T04:42:18.871Z,1009.25
2017-04-27T04:42:44.964Z,1009.25
2017-04-27T04:43:11.094Z,1009.23
2017-04-27T04:43:37.234Z,1009.24
2017-04-27T04:44:03.323Z,1009.21
2017-04-27T04:44:29.485Z,1009.23
2017-04-27T04:44:55.605Z,1009.26
2017-04-27T04:45:21.716Z,1009.27
2017-04-27T04:45:47.874Z,1009.26
2017-04-27T04:46:13.972Z,1009.24
2017-04-27T04:46:40.061Z,1009.23
2017-04-27T04:47:06.191Z,1009.22
2017-04-27T04:47:32.323Z,1009.24
2017-04-27T04:47:58.480Z,1009.25
2017-04-27T04:48:24.654Z,1009.25
2017-04-27T04:48:50.787Z,1009.25
2017-04-27T04:49:16.902Z,1009.26
2017-04-27T04:49:43.021Z,1009.24
2017-04-27T04:50:09.172Z,1009.24
2017-04-27T04:50:35.274Z,1009.27
2017-04-27T04:51:01.405Z,1009.24
2017-04-27T04:51:27.488Z,1009.25
2017-04-27T04:51:53.637Z,1009.24
2017-04-27T04:52:19.769Z,1009.31
2017-04-27T04:52:45.882Z,1009.27
2017-04-27T04:53:12.002Z,1009.29
2017-04-27T04:53:38.188Z,1009.26
2017-04-27T04:54:04.302Z,1009.3
2017-04-27T04:54:30.414Z,1009.3
2017-04-27T04:54:56.547Z,1009.32
2017-04-27T04:55:22.640Z,1009.33
2017-04-27T04:55:48.764Z,1009.31
2017-04-27T04:56:14.873Z,1009.29
2017-04-27T04:56:40.968Z,1009.31
2017-04-27T04:57:07.099Z,1009.32
2017-04-27T04:57:33.216Z,1009.31
2017-04-27T04:57:59.329Z,1009.27
2017-04-27T04:58:25.463Z,1009.33
2017-04-27T04:58:51.640Z,1009.35
2017-04-27T04:59:17.751Z,1009.35
2017-04-27T04:59:43.907Z,1009.36
2017-04-27T05:00:10.045Z,1009.34
2017-04-27T05:00:36.169Z,1009.32
2017-04-27T05:01:02.273Z,1009.32
2017-04-27T05:01:28.359Z,1009.35
2017-04-27T05:01:54.522Z,1009.32
2017-04-27T05:02:20.615Z,1009.34
2017-04-27T05:02:46.810Z,1009.33
2017-04-27T05:03:12.905Z,1009.34
2017-04-27T05:03:39.030Z,1009.32
2017-04-27T05:04:05.166Z,1009.36
2017-04-27T05:04:31.318Z,1009.35
2017-04-27T05:04:57.447Z,1009.34
2017-04-27T05:05:23.583Z,1009.34
2017-04-27T05:05:49.679Z,1009.38
2017-04-27T05:06:15.781Z,1009.35
2017-04-27T05:06:41.893Z,1009.35
2017-04-27T05:07:08.046Z,1009.34
2017-04-27T05:07:34.133Z,1009.36
2017-04-27T05:08:00.288Z,1009.35
2017-04-27T05:08:26.445Z,1009.35
2017-04-27T05:08:52.578Z,1009.38
2017-04-27T05:09:18.704Z,1009.34
2017-04-27T05:09:44.833Z,1009.36
2017-04-27T05:10:10.945Z,1009.38
2017-04-27T05:10:37.065Z,1009.37
2017-04-27T05:11:03.168Z,1009.35
2017-04-27T05:11:29.257Z,1009.4
2017-04-27T05:11:55.343Z,1009.34
2017-04-27T05:12:21.442Z,1009.35
2017-04-27T05:12:47.566Z,1009.4
2017-04-27T05:13:13.726Z,1009.39
2017-04-27T05:13:39.840Z,1009.37
2017-04-27T05:14:05.960Z,1009.43
2017-04-27T05:14:32.093Z,1009.41
2017-04-27T05:14:58.235Z,1009.39
2017-04-27T05:15:24.347Z,1009.38
2017-04-27T05:15:50.453Z,1009.36
2017-04-27T05:16:16.572Z,1009.37
2017-04-27T05:16:42.663Z,1009.39
2017-04-27T05:17:08.765Z,1009.38